createdAt,value
2018-09-05T00:00:05.760Z,1007.39
2018-09-05T00:01:05.763Z,1007.36
2018-09-05T00:02:05.766Z,1007.38
2018-09-05T00:03:05.767Z,1007.36
2018-09-05T00:04:05.771Z,1007.35
2018-09-05T00:05:05.772Z,1007.36
2018-09-05T00:06:05.775Z,1007.33
2018-09-05T00:07:05.777Z,1007.37
2018-09-05T00:08:05.781Z,1007.36
2018-09-05T00:09:05.781Z,1007.35
2018-09-05T00:10:05.784Z,1007.35
2018-09-05T00:11:05.786Z,1007.36
2018-09-05T00:12:05.789Z,1007.33
2018-09-05T00:13:05.791Z,1007.33
2018-09-05T00:14:05.795Z,1007.31
2018-09-05T00:15:05.796Z,1007.30
2018-09-05T00:16:05.799Z,1007.30
2018-09-05T00:17:05.801Z,1007.31
2018-09-05T00:18:05.802Z,1007.27
2018-09-05T00:19:05.806Z,1007.24
2018-09-05T00:20:05.808Z,1007.28
2018-09-05T00:21:05.811Z,1007.28
2018-09-05T00:22:05.813Z,1007.29
2018-09-05T00:23:05.815Z,1007.27
2018-09-05T00:24:05.817Z,1007.29
2018-09-05T00:25:05.819Z,1007.30
2018-09-05T00:26:05.824Z,1007.30
2018-09-05T00:27:05.825Z,1007.30
2018-09-05T00:28:05.825Z,1007.28
2018-09-05T00:29:05.830Z,1007.27
2018-09-05T00:30:05.831Z,1007.27
2018-09-05T00:31:05.833Z,1007.30
2018-09-05T00:32:05.836Z,1007.31
2018-09-05T00:33:05.839Z,1007.27
2018-09-05T00:34:05.842Z,1007.27
2018-09-05T00:35:05.846Z,1007.26
2018-09-05T00:36:05.846Z,1007.25
2018-09-05T00:37:05.848Z,1007.27
2018-09-05T00:38:05.850Z,1007.26
2018-09-05T00:39:05.852Z,1007.27
2018-09-05T00:40:05.854Z,1007.32
2018-09-05T00:41:05.858Z,1007.30
2018-09-05T00:42:05.860Z,1007.25
2018-09-05T00:43:05.861Z,1007.30
2018-09-05T00:44:05.864Z,1007.27
2018-09-05T00:45:05.867Z,1007.28
2018-09-05T00:46:05.872Z,1007.30
2018-09-05T00:47:05.871Z,1007.31
2018-09-05T00:48:05.875Z,1007.30
2018-09-05T00:49:05.875Z,1007.35
2018-09-05T00:50:05.881Z,1007.32
2018-09-05T00:51:05.881Z,1007.36
2018-09-05T00:52:05.882Z,1007.32
2018-09-05T00:53:05.886Z,1007.33
2018-09-05T00:54:05.887Z,1007.34
2018-09-05T00:55:05.893Z,1007.30
2018-09-05T00:56:05.891Z,1007.34
2018-09-05T00:57:05.895Z,1007.32
2018-09-05T00:58:05.896Z,1007.30
2018-09-05T00:59:05.900Z,1007.29
2018-09-05T01:00:05.899Z,1007.32
2018-09-05T01:01:05.909Z,1007.30
2018-09-05T01:02:05.905Z,1007.31
2018-09-05T01:03:05.907Z,1007.30
2018-09-05T01:04:05.911Z,1007.34
2018-09-05T01:05:05.916Z,1007.29
2018-09-05T01:06:05.915Z,1007.29
2018-09-05T01:07:05.916Z,1007.27
2018-09-05T01:08:05.920Z,1007.29
2018-09-05T01:09:05.921Z,1007.30
2018-09-05T01:10:05.926Z,1007.26
2018-09-05T01:11:05.924Z,1007.28
2018-09-05T01:12:05.927Z,1007.29
2018-09-05T01:13:05.928Z,1007.28
2018-09-05T01:14:05.931Z,1007.32
2018-09-05T01:15:05.937Z,1007.31
2018-09-05T01:16:05.934Z,1007.32
2018-09-05T01:17:05.936Z,1007.31
2018-09-05T01:18:05.940Z,1007.34
2018-09-05T01:19:05.939Z,1007.31
2018-09-05T01:20:05.944Z,1007.31
2018-09-05T01:21:05.943Z,1007.35
2018-09-05T01:22:05.948Z,1007.31
2018-09-05T01:23:05.947Z,1007.31
2018-09-05T01:24:05.951Z,1007.32
2018-09-05T01:25:05.952Z,1007.30
2018-09-05T01:26:05.955Z,1007.32
2018-09-05T01:27:05.955Z,1007.34
2018-09-05T01:28:05.958Z,1007.29
2018-09-05T01:29:05.960Z,1007.32
2018-09-05T01:30:05.962Z,1007.30
2018-09-05T01:31:05.964Z,1007.27
2018-09-05T01:32:05.968Z,1007.27
2018-09-05T01:33:05.970Z,1007.28
2018-09-05T01:34:05.972Z,1007.28
2018-09-05T01:35:05.970Z,1007.27
2018-09-05T01:36:05.973Z,1007.24
2018-09-05T01:37:05.975Z,1007.22
2018-09-05T01:38:05.978Z,1007.24
2018-09-05T01:39:05.977Z,1007.21
2018-09-05T01:40:05.980Z,1007.23
2018-09-05T01:41:05.983Z,1007.21
2018-09-05T01:42:05.985Z,1007.17
2018-09-05T01:43:05.987Z,1007.20
2018-09-05T01:44:05.989Z,1007.20
2018-09-05T01:45:05.989Z,1007.18
2018-09-05T01:46:05.993Z,1007.19
2018-09-05T01:47:05.992Z,1007.16
2018-09-05T01:48:05.996Z,1007.14
2018-09-05T01:49:05.997Z,1007.14
2018-09-05T01:50:05.999Z,1007.18
2018-09-05T01:51:06.001Z,1007.19
2018-09-05T01:52:06.003Z,1007.16
2018-09-05T01:53:06.005Z,1007.18
2018-09-05T01:54:06.007Z,1007.14
2018-09-05T01:55:06.008Z,1007.16
2018-09-05T01:56:06.012Z,1007.16
2018-09-05T01:57:06.012Z,1007.16
2018-09-05T01:58:06.015Z,1007.16
2018-09-05T01:59:06.014Z,1007.13
2018-09-05T02:00:06.018Z,1007.14
2018-09-05T02:01:06.019Z,1007.16
2018-09-05T02:02:06.021Z,1007.17
2018-09-05T02:03:06.021Z,1007.19
2018-09-05T02:04:06.023Z,1007.18
2018-09-05T02:05:06.025Z,1007.17
2018-09-05T02:06:06.029Z,1007.18
2018-09-05T02:07:06.027Z,1007.14
2018-09-05T02:08:06.031Z,1007.15
2018-09-05T02:09:06.032Z,1007.14
2018-09-05T02:10:06.034Z,1007.14
2018-09-05T02:11:06.035Z,1007.15
2018-09-05T02:12:06.037Z,1007.16
2018-09-05T02:13:06.038Z,1007.10
2018-09-05T02:14:06.043Z,1007.16
2018-09-05T02:15:06.041Z,1007.13
2018-09-05T02:16:06.045Z,1007.14
2018-09-05T02:17:06.045Z,1007.16
2018-09-05T02:18:06.049Z,1007.12
2018-09-05T02:19:06.049Z,1007.14
2018-09-05T02:20:06.051Z,1007.17
2018-09-05T02:21:06.051Z,1007.20
2018-09-05T02:22:06.054Z,1007.19
2018-09-05T02:23:06.056Z,1007.18
2018-09-05T02:24:06.056Z,1007.17
2018-09-05T02:25:06.061Z,1007.20
2018-09-05T02:26:06.060Z,1007.19
2018-09-05T02:27:06.061Z,1007.17
2018-09-05T02:28:06.063Z,1007.15
2018-09-05T02:29:06.065Z,1007.13
2018-09-05T02:30:06.067Z,1007.15
2018-09-05T02:31:06.066Z,1007.10
2018-09-05T02:32:06.069Z,1007.11
2018-09-05T02:33:06.070Z,1007.09
2018-09-05T02:34:06.072Z,1007.08
2018-09-05T02:35:06.072Z,1007.08
2018-09-05T02:36:06.075Z,1007.09
2018-09-05T02:37:06.076Z,1007.09
2018-09-05T02:38:06.077Z,1007.04
2018-09-05T02:39:06.079Z,1007.04
2018-09-05T02:40:06.080Z,1007.08
2018-09-05T02:41:06.085Z,1007.07
2018-09-05T02:42:06.083Z,1007.08
2018-09-05T02:43:06.085Z,1007.11
2018-09-05T02:44:06.085Z,1007.11
2018-09-05T02:45:06.088Z,1007.10
2018-09-05T02:46:06.088Z,1007.13
2018-09-05T02:47:06.090Z,1007.14
2018-09-05T02:48:06.090Z,1007.13
2018-09-05T02:49:06.092Z,1007.14
2018-09-05T02:50:06.094Z,1007.13
2018-09-05T02:51:06.094Z,1007.12
2018-09-05T02:52:06.097Z,1007.12
2018-09-05T02:53:06.097Z,1007.13
2018-09-05T02:54:06.099Z,1007.14
2018-09-05T02:55:06.099Z,1007.18
2018-09-05T02:56:06.102Z,1007.15
2018-09-05T02:57:06.103Z,1007.12
2018-09-05T02:58:06.104Z,1007.17
2018-09-05T02:59:06.104Z,1007.15
2018-09-05T03:00:06.112Z,1007.14
2018-09-05T03:01:06.110Z,1007.14
2018-09-05T03:02:06.109Z,1007.13
2018-09-05T03:03:06.111Z,1007.13
2018-09-05T03:04:06.112Z,1007.12
2018-09-05T03:05:06.115Z,1007.12
2018-09-05T03:06:06.116Z,1007.11
2018-09-05T03:07:06.115Z,1007.09
2018-09-05T03:08:06.117Z,1007.11
2018-09-05T03:09:06.118Z,1007.11
2018-09-05T03:10:06.123Z,1007.11
2018-09-05T03:11:06.121Z,1007.09
2018-09-05T03:12:06.121Z,1007.06
2018-09-05T03:13:06.123Z,1007.10
2018-09-05T03:14:06.124Z,1007.06
2018-09-05T03:15:06.125Z,1007.11
2018-09-05T03:16:06.125Z,1007.04
2018-09-05T03:17:06.127Z,1007.09
2018-09-05T03:18:06.128Z,1007.13
2018-09-05T03:19:06.129Z,1007.07
2018-09-05T03:20:06.131Z,1007.12
2018-09-05T03:21:06.132Z,1007.13
2018-09-05T03:22:06.134Z,1007.05
2018-09-05T03:23:06.133Z,1007.10
2018-09-05T03:24:06.136Z,1007.08
2018-09-05T03:25:06.136Z,1007.09
2018-09-05T03:26:06.138Z,1007.09
2018-09-05T03:27:06.137Z,1007.11
2018-09-05T03:28:06.140Z,1007.08
2018-09-05T03:29:06.140Z,1007.11
2018-09-05T03:30:06.142Z,1007.13
2018-09-05T03:31:06.143Z,1007.10
2018-09-05T03:32:06.181Z,1007.16
2018-09-05T03:33:06.215Z,1007.12
2018-09-05T03:34:06.147Z,1007.15
2018-09-05T03:35:06.148Z,1007.14
2018-09-05T03:36:06.148Z,1007.16
2018-09-05T03:37:06.148Z,1007.17
2018-09-05T03:38:06.157Z,1007.18
2018-09-05T03:39:06.152Z,1007.13
2018-09-05T03:40:06.152Z,1007.19
2018-09-05T03:41:06.153Z,1007.14
2018-09-05T03:42:06.155Z,1007.17
2018-09-05T03:43:06.156Z,1007.16
2018-09-05T03:44:06.157Z,1007.19
2018-09-05T03:45:06.157Z,1007.14
2018-09-05T03:46:06.160Z,1007.14
2018-09-05T03:47:06.162Z,1007.18
2018-09-05T03:48:06.159Z,1007.20
2018-09-05T03:49:06.161Z,1007.18
2018-09-05T03:50:06.164Z,1007.23
2018-09-05T03:51:06.162Z,1007.27
2018-09-05T03:52:06.164Z,1007.24
2018-09-05T03:53:06.164Z,1007.25
2018-09-05T03:54:06.166Z,1007.24
2018-09-05T03:55:06.167Z,1007.25
2018-09-05T03:56:06.167Z,1007.28
2018-09-05T03:57:06.168Z,1007.27
2018-09-05T03:58:06.171Z,1007.29
2018-09-05T03:59:06.170Z,1007.25
2018-09-05T04:00:06.170Z,1007.29
2018-09-05T04:01:06.173Z,1007.29
2018-09-05T04:02:06.173Z,1007.28
2018-09-05T04:03:06.176Z,1007.25
2018-09-05T04:04:06.175Z,1007.29
2018-09-05T04:05:06.240Z,1007.27
2018-09-05T04:06:06.177Z,1007.26
2018-09-05T04:07:06.175Z,1007.23
2018-09-05T04:08:06.181Z,1007.27
2018-09-05T04:09:06.179Z,1007.20
2018-09-05T04:10:06.180Z,1007.27
2018-09-05T04:11:06.179Z,1007.21
2018-09-05T04:12:06.274Z,1007.23
2018-09-05T04:13:06.181Z,1007.24
2018-09-05T04:14:06.182Z,1007.26
2018-09-05T04:15:06.182Z,1007.30
2018-09-05T04:16:06.183Z,1007.27
2018-09-05T04:17:06.184Z,1007.28
2018-09-05T04:18:06.184Z,1007.27
2018-09-05T04:19:06.186Z,1007.28
2018-09-05T04:20:06.187Z,1007.26
2018-09-05T04:21:06.189Z,1007.28
2018-09-05T04:22:06.219Z,1007.24
2018-09-05T04:23:06.188Z,1007.27
2018-09-05T04:24:06.191Z,1007.19
2018-09-05T04:25:06.189Z,1007.21
2018-09-05T04:26:06.193Z,1007.23
2018-09-05T04:27:06.191Z,1007.19
2018-09-05T04:28:06.193Z,1007.25
2018-09-05T04:29:06.194Z,1007.25
2018-09-05T04:30:06.195Z,1007.22
2018-09-05T04:31:06.195Z,1007.26
2018-09-05T04:32:06.195Z,1007.24
2018-09-05T04:33:06.197Z,1007.24
2018-09-05T04:34:06.198Z,1007.27
2018-09-05T04:35:06.197Z,1007.24
2018-09-05T04:36:06.198Z,1007.23
2018-09-05T04:37:06.200Z,1007.24
2018-09-05T04:38:06.201Z,1007.26
2018-09-05T04:39:06.201Z,1007.26
2018-09-05T04:40:06.200Z,1007.23
2018-09-05T04:41:06.202Z,1007.26
2018-09-05T04:42:06.203Z,1007.23
2018-09-05T04:43:06.202Z,1007.28
2018-09-05T04:44:06.204Z,1007.26
2018-09-05T04:45:06.253Z,1007.28
2018-09-05T04:46:06.205Z,1007.28
2018-09-05T04:47:06.204Z,1007.27
2018-09-05T04:48:06.206Z,1007.27
2018-09-05T04:49:06.206Z,1007.28
2018-09-05T04:50:06.207Z,1007.23
2018-09-05T04:51:06.208Z,1007.27
2018-09-05T04:52:06.208Z,1007.28
2018-09-05T04:53:06.208Z,1007.27
2018-09-05T04:54:06.210Z,1007.33
2018-09-05T04:55:06.216Z,1007.32
2018-09-05T04:56:06.210Z,1007.33
2018-09-05T04:57:06.212Z,1007.27
2018-09-05T04:58:06.212Z,1007.33
2018-09-05T04:59:06.214Z,1007.32
2018-09-05T05:00:06.213Z,1007.31
2018-09-05T05:01:06.216Z,1007.27
2018-09-05T05:02:06.216Z,1007.30
2018-09-05T05:03:06.216Z,1007.33
2018-09-05T05:04:06.216Z,1007.29
2018-09-05T05:05:06.217Z,1007.33
2018-09-05T05:06:06.217Z,1007.33
2018-09-05T05:07:06.215Z,1007.34
2018-09-05T05:08:06.219Z,1007.34
2018-09-05T05:09:06.219Z,1007.36
2018-09-05T05:10:06.220Z,1007.33
2018-09-05T05:11:06.219Z,1007.35
2018-09-05T05:12:06.219Z,1007.32
2018-09-05T05:13:06.221Z,1007.35
2018-09-05T05:14:06.221Z,1007.35
2018-09-05T05:15:06.223Z,1007.37
2018-09-05T05:16:06.222Z,1007.37
2018-09-05T05:17:06.223Z,1007.39
2018-09-05T05:18:06.224Z,1007.35
2018-09-05T05:19:06.225Z,1007.40
2018-09-05T05:20:06.224Z,1007.42
2018-09-05T05:21:06.225Z,1007.40
2018-09-05T05:22:06.227Z,1007.43
2018-09-05T05:23:06.227Z,1007.39
2018-09-05T05:24:06.228Z,1007.41
2018-09-05T05:25:06.227Z,1007.44
2018-09-05T05:26:06.229Z,1007.43
2018-09-05T05:27:06.229Z,1007.42
2018-09-05T05:28:06.228Z,1007.46
2018-09-05T05:29:06.229Z,1007.46
2018-09-05T05:30:06.232Z,1007.45
2018-09-05T05:31:06.230Z,1007.47
2018-09-05T05:32:06.231Z,1007.49
2018-09-05T05:33:06.233Z,1007.48
2018-09-05T05:34:06.233Z,1007.50
2018-09-05T05:35:06.234Z,1007.47
2018-09-05T05:36:06.234Z,1007.50
2018-09-05T05:37:06.234Z,1007.48
2018-09-05T05:38:06.236Z,1007.50
2018-09-05T05:39:06.236Z,1007.50
2018-09-05T05:40:06.246Z,1007.50
2018-09-05T05:41:06.238Z,1007.50
2018-09-05T05:42:06.238Z,1007.52
2018-09-05T05:43:06.244Z,1007.52
2018-09-05T05:44:06.238Z,1007.52
2018-09-05T05:45:06.240Z,1007.56
2018-09-05T05:46:06.241Z,1007.56
2018-09-05T05:47:06.240Z,1007.57
2018-09-05T05:48:06.241Z,1007.58
2018-09-05T05:49:06.241Z,1007.57
2018-09-05T05:50:06.242Z,1007.61
2018-09-05T05:51:06.242Z,1007.57
2018-09-05T05:52:06.244Z,1007.58
2018-09-05T05:53:06.244Z,1007.56
2018-09-05T05:54:06.247Z,1007.59
2018-09-05T05:55:06.275Z,1007.59
2018-09-05T05:56:06.247Z,1007.62
2018-09-05T05:57:06.248Z,1007.61
2018-09-05T05:58:06.254Z,1007.62
2018-09-05T05:59:06.250Z,1007.64
2018-09-05T06:00:06.251Z,1007.63
2018-09-05T06:01:06.281Z,1007.64
2018-09-05T06:02:06.253Z,1007.63
2018-09-05T06:03:06.254Z,1007.66
2018-09-05T06:04:06.257Z,1007.70
2018-09-05T06:05:06.255Z,1007.74
2018-09-05T06:06:06.311Z,1007.76
2018-09-05T06:07:06.260Z,1007.70
2018-09-05T06:08:06.259Z,1007.73
2018-09-05T06:09:06.260Z,1007.69
2018-09-05T06:10:06.261Z,1007.74
2018-09-05T06:11:06.261Z,1007.75
2018-09-05T06:12:06.298Z,1007.75
2018-09-05T06:13:06.266Z,1007.75
2018-09-05T06:14:06.265Z,1007.75
2018-09-05T06:15:06.268Z,1007.79
2018-09-05T06:16:06.266Z,1007.77
2018-09-05T06:17:06.269Z,1007.75
2018-09-05T06:18:06.275Z,1007.80
2018-09-05T06:19:06.274Z,1007.79
2018-09-05T06:20:06.272Z,1007.80
2018-09-05T06:21:06.349Z,1007.77
2018-09-05T06:22:06.273Z,1007.78
2018-09-05T06:23:06.274Z,1007.83
2018-09-05T06:24:06.321Z,1007.80
2018-09-05T06:25:06.279Z,1007.81
2018-09-05T06:26:06.279Z,1007.79
2018-09-05T06:27:06.280Z,1007.75
2018-09-05T06:28:06.283Z,1007.79
2018-09-05T06:29:06.283Z,1007.79
2018-09-05T06:30:06.286Z,1007.79
2018-09-05T06:31:06.411Z,1007.80
2018-09-05T06:32:06.287Z,1007.81
2018-09-05T06:33:06.288Z,1007.81
2018-09-05T06:34:06.322Z,1007.83
2018-09-05T06:35:06.294Z,1007.79
2018-09-05T06:36:06.292Z,1007.79
2018-09-05T06:37:06.294Z,1007.81
2018-09-05T06:38:06.295Z,1007.81
2018-09-05T06:39:06.341Z,1007.85
2018-09-05T06:40:06.300Z,1007.85
2018-09-05T06:41:06.300Z,1007.87
2018-09-05T06:42:06.305Z,1007.86
2018-09-05T06:43:06.303Z,1007.86
2018-09-05T06:44:06.305Z,1007.89
2018-09-05T06:45:06.408Z,1007.91
2018-09-05T06:46:06.310Z,1007.85
2018-09-05T06:47:06.311Z,1007.89
2018-09-05T06:48:06.313Z,1007.88
2018-09-05T06:49:06.314Z,1007.86
2018-09-05T06:50:06.317Z,1007.89
2018-09-05T06:51:06.317Z,1007.91
2018-09-05T06:52:06.320Z,1007.94
2018-09-05T06:53:06.322Z,1007.95
2018-09-05T06:54:06.324Z,1007.94
2018-09-05T06:55:06.325Z,1007.95
2018-09-05T06:56:06.327Z,1007.98
2018-09-05T06:57:06.334Z,1007.97
2018-09-05T06:58:06.352Z,1007.99
2018-09-05T06:59:06.333Z,1007.99
2018-09-05T07:00:06.336Z,1007.96
2018-09-05T07:01:06.338Z,1008.01
2018-09-05T07:02:06.340Z,1007.99
2018-09-05T07:03:06.343Z,1007.98
2018-09-05T07:04:06.346Z,1008.00
2018-09-05T07:05:06.348Z,1007.96
2018-09-05T07:06:06.351Z,1007.95
2018-09-05T07:07:06.415Z,1007.96
2018-09-05T07:08:06.353Z,1007.92
2018-09-05T07:09:06.360Z,1007.95
2018-09-05T07:10:06.438Z,1007.95
2018-09-05T07:11:06.361Z,1007.93
2018-09-05T07:12:06.363Z,1007.94
2018-09-05T07:13:06.367Z,1007.93
2018-09-05T07:14:06.405Z,1007.97
2018-09-05T07:15:06.371Z,1007.96
2018-09-05T07:16:06.374Z,1007.96
2018-09-05T07:17:06.376Z,1007.97
2018-09-05T07:18:06.379Z,1007.96
2018-09-05T07:19:06.385Z,1007.96
2018-09-05T07:20:06.383Z,1007.96
2018-09-05T07:21:06.407Z,1007.98
2018-09-05T07:22:06.466Z,1007.99
2018-09-05T07:23:06.389Z,1007.96
2018-09-05T07:24:06.394Z,1007.93
2018-09-05T07:25:06.425Z,1007.95
2018-09-05T07:26:06.406Z,1007.95
2018-09-05T07:27:06.400Z,1007.98
2018-09-05T07:28:06.403Z,1007.96
2018-09-05T07:29:06.407Z,1007.95
2018-09-05T07:30:06.409Z,1007.91
2018-09-05T07:31:06.413Z,1007.97
2018-09-05T07:32:06.416Z,1007.96
2018-09-05T07:33:06.425Z,1007.98
2018-09-05T07:34:06.422Z,1007.95
2018-09-05T07:35:06.426Z,1008.01
2018-09-05T07:36:06.426Z,1008.03
2018-09-05T07:37:06.427Z,1008.01
2018-09-05T07:38:06.430Z,1008.02
2018-09-05T07:39:06.436Z,1008.01
2018-09-05T07:40:06.436Z,1008.05
2018-09-05T07:41:06.439Z,1008.05
2018-09-05T07:42:06.443Z,1008.05
2018-09-05T07:43:06.445Z,1008.07
2018-09-05T07:44:06.448Z,1008.04
2018-09-05T07:45:06.450Z,1008.06
2018-09-05T07:46:06.453Z,1008.06
2018-09-05T07:47:06.456Z,1008.08
2018-09-05T07:48:06.458Z,1008.06
2018-09-05T07:49:06.463Z,1008.06
2018-09-05T07:50:06.476Z,1008.07
2018-09-05T07:51:06.474Z,1008.07
2018-09-05T07:52:06.512Z,1008.06
2018-09-05T07:53:06.476Z,1008.10
2018-09-05T07:54:06.479Z,1008.09
2018-09-05T07:55:06.481Z,1008.13
2018-09-05T07:56:06.485Z,1008.12
2018-09-05T07:57:06.487Z,1008.12
2018-09-05T07:58:06.494Z,1008.06
2018-09-05T07:59:06.493Z,1008.08
2018-09-05T08:00:06.498Z,1008.05
2018-09-05T08:01:06.503Z,1008.05
2018-09-05T08:02:06.503Z,1008.03
2018-09-05T08:03:06.511Z,1008.01
2018-09-05T08:04:06.512Z,1008.02
2018-09-05T08:05:06.516Z,1008.05
2018-09-05T08:06:06.517Z,1008.06
2018-09-05T08:07:06.519Z,1008.05
2018-09-05T08:08:06.524Z,1008.01
2018-09-05T08:09:06.526Z,1008.04
2018-09-05T08:10:06.530Z,1008.04
2018-09-05T08:11:06.534Z,1008.05
2018-09-05T08:12:06.536Z,1008.07
2018-09-05T08:13:06.541Z,1008.08
2018-09-05T08:14:06.544Z,1008.04
2018-09-05T08:15:06.547Z,1008.03
2018-09-05T08:16:06.551Z,1008.06
2018-09-05T08:17:06.552Z,1008.06
2018-09-05T08:18:06.576Z,1008.02
2018-09-05T08:19:06.560Z,1008.02
2018-09-05T08:20:06.564Z,1008.00
2018-09-05T08:21:06.568Z,1008.01
2018-09-05T08:22:06.572Z,1008.03
2018-09-05T08:23:06.576Z,1008.02
2018-09-05T08:24:06.633Z,1008.05
2018-09-05T08:25:06.588Z,1008.02
2018-09-05T08:26:06.588Z,1008.02
2018-09-05T08:27:06.594Z,1008.02
2018-09-05T08:28:06.595Z,1008.06
2018-09-05T08:29:06.663Z,1008.03
2018-09-05T08:30:06.665Z,1008.06
2018-09-05T08:31:06.609Z,1008.05
2018-09-05T08:32:06.610Z,1008.06
2018-09-05T08:33:06.614Z,1008.02
2018-09-05T08:34:06.622Z,1008.06
2018-09-05T08:35:06.664Z,1008.12
2018-09-05T08:36:06.895Z,1008.29
2018-09-05T08:37:06.818Z,1008.39
2018-09-05T08:38:06.681Z,1008.45
2018-09-05T08:39:06.642Z,1008.51
2018-09-05T08:40:06.705Z,1008.51
2018-09-05T08:41:06.686Z,1008.52
2018-09-05T08:42:06.664Z,1008.50
2018-09-05T08:43:06.665Z,1008.62
2018-09-05T08:44:06.754Z,1008.58
2018-09-05T08:45:06.851Z,1008.57
2018-09-05T08:46:06.780Z,1008.58
2018-09-05T08:47:06.696Z,1008.55
2018-09-05T08:48:06.710Z,1008.60
2018-09-05T08:49:06.715Z,1008.58
2018-09-05T08:50:06.724Z,1008.63
2018-09-05T08:51:06.734Z,1008.66
2018-09-05T08:52:06.746Z,1008.66
2018-09-05T08:53:06.754Z,1008.62
2018-09-05T08:54:06.765Z,1008.64
2018-09-05T08:55:06.820Z,1008.64
2018-09-05T08:56:06.792Z,1008.64
2018-09-05T08:57:06.801Z,1008.67
2018-09-05T08:58:06.811Z,1008.68
2018-09-05T08:59:06.823Z,1008.67
2018-09-05T09:00:06.837Z,1008.78
2018-09-05T09:01:06.848Z,1008.77
2018-09-05T09:02:06.862Z,1008.75
2018-09-05T09:03:07.071Z,1008.76
2018-09-05T09:04:06.886Z,1008.77
2018-09-05T09:05:06.944Z,1008.77
2018-09-05T09:06:06.948Z,1008.75
2018-09-05T09:07:06.929Z,1008.75
2018-09-05T09:08:06.941Z,1008.75
2018-09-05T09:09:06.956Z,1008.76
2018-09-05T09:10:06.973Z,1008.76
2018-09-05T09:11:06.985Z,1008.80
2018-09-05T09:12:06.999Z,1008.76
2018-09-05T09:13:07.015Z,1008.78
2018-09-05T09:14:07.030Z,1008.80
2018-09-05T09:15:07.045Z,1008.82
2018-09-05T09:16:07.057Z,1008.85
2018-09-05T09:17:07.074Z,1008.85
2018-09-05T09:18:07.089Z,1008.86
2018-09-05T09:19:07.104Z,1008.87
2018-09-05T09:20:07.118Z,1008.80
2018-09-05T09:21:07.133Z,1008.83
2018-09-05T09:22:07.150Z,1008.83
2018-09-05T09:23:07.168Z,1008.81
2018-09-05T09:24:07.179Z,1008.77
2018-09-05T09:25:07.195Z,1008.80
2018-09-05T09:26:07.213Z,1008.78
2018-09-05T09:27:07.226Z,1008.80
2018-09-05T09:28:07.264Z,1008.82
2018-09-05T09:29:07.258Z,1008.73
2018-09-05T09:30:07.275Z,1008.79
2018-09-05T09:31:07.290Z,1008.73
2018-09-05T09:32:07.307Z,1008.73
2018-09-05T09:33:07.325Z,1008.71
2018-09-05T09:34:07.339Z,1008.69
2018-09-05T09:35:07.357Z,1008.60
2018-09-05T09:36:07.376Z,1008.60
2018-09-05T09:37:07.387Z,1008.64
2018-09-05T09:38:07.403Z,1008.71
2018-09-05T09:39:07.419Z,1008.75
2018-09-05T09:40:07.436Z,1008.72
2018-09-05T09:41:07.455Z,1008.71
2018-09-05T09:42:07.468Z,1008.75
2018-09-05T09:43:07.487Z,1008.73
2018-09-05T09:44:07.501Z,1008.72
2018-09-05T09:45:07.518Z,1008.75
2018-09-05T09:46:07.536Z,1008.74
2018-09-05T09:47:07.551Z,1008.70
2018-09-05T09:48:07.568Z,1008.71
2018-09-05T09:49:07.585Z,1008.70
2018-09-05T09:50:07.604Z,1008.71
2018-09-05T09:51:07.620Z,1008.71
2018-09-05T09:52:07.634Z,1008.71
2018-09-05T09:53:07.651Z,1008.70
2018-09-05T09:54:07.667Z,1008.72
2018-09-05T09:55:07.683Z,1008.66
2018-09-05T09:56:07.700Z,1008.70
2018-09-05T09:57:07.717Z,1008.66
2018-09-05T09:58:07.735Z,1008.66
2018-09-05T09:59:07.750Z,1008.65
2018-09-05T10:00:07.766Z,1008.65
2018-09-05T10:01:07.782Z,1008.63
2018-09-05T10:02:07.801Z,1008.56
2018-09-05T10:03:07.868Z,1008.54
2018-09-05T10:04:07.852Z,1008.53
2018-09-05T10:05:07.850Z,1008.49
2018-09-05T10:06:07.866Z,1008.51
2018-09-05T10:07:07.938Z,1008.60
2018-09-05T10:08:07.899Z,1008.55
2018-09-05T10:09:07.915Z,1008.53
2018-09-05T10:10:08.072Z,1008.55
2018-09-05T10:11:07.948Z,1008.52
2018-09-05T10:12:07.965Z,1008.54
2018-09-05T10:13:07.982Z,1008.54
2018-09-05T10:14:07.999Z,1008.52
2018-09-05T10:15:08.015Z,1008.53
2018-09-05T10:16:08.031Z,1008.51
2018-09-05T10:17:08.110Z,1008.53
2018-09-05T10:18:08.064Z,1008.56
2018-09-05T10:19:08.080Z,1008.54
2018-09-05T10:20:08.094Z,1008.54
2018-09-05T10:21:08.176Z,1008.49
2018-09-05T10:22:08.130Z,1008.47
2018-09-05T10:23:08.145Z,1008.49
2018-09-05T10:24:08.164Z,1008.48
2018-09-05T10:25:08.177Z,1008.48
2018-09-05T10:26:08.196Z,1008.46
2018-09-05T10:27:08.210Z,1008.48
2018-09-05T10:28:08.226Z,1008.48
2018-09-05T10:29:08.246Z,1008.47
2018-09-05T10:30:08.261Z,1008.45
2018-09-05T10:31:08.275Z,1008.44
2018-09-05T10:32:08.293Z,1008.44
2018-09-05T10:33:08.310Z,1008.43
2018-09-05T10:34:08.325Z,1008.46
2018-09-05T10:35:08.343Z,1008.43
2018-09-05T10:36:08.359Z,1008.40
2018-09-05T10:37:08.375Z,1008.35
2018-09-05T10:38:08.395Z,1008.28
2018-09-05T10:39:08.407Z,1008.01
2018-09-05T10:40:08.425Z,1008.03
2018-09-05T10:41:08.440Z,1007.93
2018-09-05T10:42:08.456Z,1007.85
2018-09-05T10:43:08.472Z,1007.76
2018-09-05T10:44:08.516Z,1007.69
2018-09-05T10:45:08.505Z,1007.70
2018-09-05T10:46:08.520Z,1007.71
2018-09-05T10:47:08.536Z,1007.72
2018-09-05T10:48:08.551Z,1007.69
2018-09-05T10:49:08.567Z,1007.70
2018-09-05T10:50:08.581Z,1007.71
2018-09-05T10:51:08.595Z,1007.64
2018-09-05T10:52:08.610Z,1007.74
2018-09-05T10:53:08.624Z,1007.79
2018-09-05T10:54:08.640Z,1007.87
2018-09-05T10:55:08.653Z,1007.85
2018-09-05T10:56:08.666Z,1007.79
2018-09-05T10:57:08.680Z,1007.68
2018-09-05T10:58:08.750Z,1007.73
2018-09-05T10:59:08.707Z,1007.67
2018-09-05T11:00:08.723Z,1007.58
2018-09-05T11:01:08.734Z,1007.55
2018-09-05T11:02:08.747Z,1007.54
2018-09-05T11:03:08.758Z,1007.57
2018-09-05T11:04:08.805Z,1007.59
2018-09-05T11:05:08.787Z,1007.65
2018-09-05T11:06:08.799Z,1007.67
2018-09-05T11:07:08.812Z,1007.63
2018-09-05T11:08:08.824Z,1007.66
2018-09-05T11:09:08.836Z,1007.57
2018-09-05T11:10:08.849Z,1007.57
2018-09-05T11:11:08.860Z,1007.60
2018-09-05T11:12:08.871Z,1007.56
2018-09-05T11:13:08.885Z,1007.56
2018-09-05T11:14:08.898Z,1007.51
2018-09-05T11:15:08.912Z,1007.51
2018-09-05T11:16:08.919Z,1007.51
2018-09-05T11:17:08.931Z,1007.50
2018-09-05T11:18:08.942Z,1007.53
2018-09-05T11:19:08.953Z,1007.50
2018-09-05T11:20:08.965Z,1007.53
2018-09-05T11:21:08.982Z,1007.50
2018-09-05T11:22:08.987Z,1007.47
2018-09-05T11:23:08.998Z,1007.46
2018-09-05T11:24:09.008Z,1007.43
2018-09-05T11:25:09.020Z,1007.42
2018-09-05T11:26:09.030Z,1007.49
2018-09-05T11:27:09.040Z,1007.40
2018-09-05T11:28:09.050Z,1007.41
2018-09-05T11:29:09.114Z,1007.43
2018-09-05T11:30:09.073Z,1007.42
2018-09-05T11:31:09.080Z,1007.40
2018-09-05T11:32:09.095Z,1007.41
2018-09-05T11:33:09.101Z,1007.38
2018-09-05T11:34:09.111Z,1007.39
2018-09-05T11:35:09.120Z,1007.39
2018-09-05T11:36:09.130Z,1007.38
2018-09-05T11:37:09.141Z,1007.32
2018-09-05T11:38:09.150Z,1007.33
2018-09-05T11:39:09.159Z,1007.33
2018-09-05T11:40:09.169Z,1007.35
2018-09-05T11:41:09.178Z,1007.34
2018-09-05T11:42:09.191Z,1007.33
2018-09-05T11:43:09.203Z,1007.32
2018-09-05T11:44:09.206Z,1007.29
2018-09-05T11:45:09.217Z,1007.32
2018-09-05T11:46:09.226Z,1007.30
2018-09-05T11:47:09.236Z,1007.35
2018-09-05T11:48:09.245Z,1007.30
2018-09-05T11:49:09.253Z,1007.31
2018-09-05T11:50:09.263Z,1007.33
2018-09-05T11:51:09.271Z,1007.31
2018-09-05T11:52:09.282Z,1007.32
2018-09-05T11:53:09.292Z,1007.29
2018-09-05T11:54:09.301Z,1007.36
2018-09-05T11:55:09.309Z,1007.33
2018-09-05T11:56:09.321Z,1007.30
2018-09-05T11:57:09.329Z,1007.31
2018-09-05T11:58:09.338Z,1007.29
2018-09-05T11:59:09.345Z,1007.30
2018-09-05T12:00:09.355Z,1007.27
2018-09-05T12:01:09.365Z,1007.28
2018-09-05T12:02:09.410Z,1007.26
2018-09-05T12:03:09.382Z,1007.28
2018-09-05T12:04:09.393Z,1007.24
2018-09-05T12:05:09.403Z,1007.23